createdAt,value
2018-10-18T00:00:48.282Z,14.20
2018-10-18T00:03:22.176Z,13.90
2018-10-18T00:05:56.173Z,13.93
2018-10-18T00:08:30.134Z,14.10
2018-10-18T00:11:04.002Z,14.23
2018-10-18T00:13:37.888Z,15.70
2018-10-18T00:16:11.684Z,15.27
2018-10-18T00:18:45.593Z,14.30
2018-10-18T00:21:19.432Z,14.83
2018-10-18T00:23:53.363Z,14.57
2018-10-18T00:26:27.216Z,14.73
2018-10-18T00:29:01.112Z,15.80
2018-10-18T00:31:34.985Z,16.03
2018-10-18T00:34:08.869Z,14.17
2018-10-18T00:36:42.710Z,14.93
2018-10-18T00:39:16.723Z,15.93
2018-10-18T00:41:50.615Z,15.70
2018-10-18T00:44:24.459Z,16.70
2018-10-18T00:46:58.316Z,14.90
2018-10-18T00:49:32.219Z,16.27
2018-10-18T00:52:06.404Z,19.47
2018-10-18T00:54:40.267Z,18.63
2018-10-18T00:57:14.255Z,19.60
2018-10-18T00:59:48.196Z,19.53
2018-10-18T01:02:22.018Z,21.47
2018-10-18T01:04:56.028Z,21.50
2018-10-18T01:07:29.856Z,22.30
2018-10-18T01:10:03.933Z,21.83
2018-10-18T01:12:37.801Z,18.30
2018-10-18T01:15:11.700Z,17.50
2018-10-18T01:17:45.553Z,17.30
2018-10-18T01:20:19.549Z,17.13
2018-10-18T01:22:53.458Z,18.70
2018-10-18T01:25:27.405Z,17.60
2018-10-18T01:28:01.238Z,16.57
2018-10-18T01:30:35.239Z,17.70
2018-10-18T01:33:09.070Z,19.60
2018-10-18T01:35:43.023Z,20.10
2018-10-18T01:38:17.070Z,23.60
2018-10-18T01:40:51.965Z,22.63
2018-10-18T01:43:25.866Z,22.87
2018-10-18T01:45:59.841Z,25.07
2018-10-18T01:48:33.810Z,24.50
2018-10-18T01:51:07.751Z,25.25
2018-10-18T01:53:41.705Z,25.15
2018-10-18T01:56:15.852Z,28.45
2018-10-18T01:58:49.725Z,27.00
2018-10-18T02:01:23.693Z,32.65
2018-10-18T02:03:57.522Z,37.85
2018-10-18T02:06:31.400Z,35.00
2018-10-18T02:09:08.444Z,32.63
2018-10-18T02:11:42.908Z,35.13
2018-10-18T02:14:16.783Z,34.88
2018-10-18T02:16:50.707Z,34.58
2018-10-18T02:19:24.613Z,45.33
2018-10-18T02:21:58.721Z,47.98
2018-10-18T02:24:32.612Z,45.05
2018-10-18T02:27:06.636Z,49.48
2018-10-18T02:29:40.595Z,48.70
2018-10-18T02:32:14.477Z,43.63
2018-10-18T02:34:48.382Z,62.08
2018-10-18T02:37:22.265Z,46.25
2018-10-18T02:39:56.140Z,48.30
2018-10-18T02:42:30.063Z,57.17
2018-10-18T02:45:03.997Z,41.83
2018-10-18T02:47:37.936Z,43.42
2018-10-18T02:50:11.797Z,42.90
2018-10-18T02:52:45.763Z,47.88
2018-10-18T02:55:19.665Z,48.05
2018-10-18T02:57:53.526Z,48.05
2018-10-18T03:00:27.374Z,44.25
2018-10-18T03:03:01.285Z,45.88
2018-10-18T03:05:35.090Z,47.70
2018-10-18T03:08:08.968Z,41.40
2018-10-18T03:10:42.873Z,44.63
2018-10-18T03:13:16.739Z,41.23
2018-10-18T03:15:50.628Z,41.45
2018-10-18T03:18:24.521Z,45.17
2018-10-18T03:20:58.354Z,46.77
2018-10-18T03:23:32.617Z,46.92
2018-10-18T03:26:06.503Z,46.15
2018-10-18T03:28:40.470Z,54.42
2018-10-18T03:31:14.396Z,41.83
2018-10-18T03:33:49.319Z,39.98
2018-10-18T03:36:23.235Z,44.18
2018-10-18T03:38:57.168Z,54.10
2018-10-18T03:41:30.992Z,43.48
2018-10-18T03:44:05.262Z,39.80
2018-10-18T03:46:39.094Z,47.62
2018-10-18T03:49:13.023Z,39.33
2018-10-18T03:51:46.948Z,37.45
2018-10-18T03:54:20.908Z,39.27
2018-10-18T03:56:54.989Z,37.98
2018-10-18T03:59:28.897Z,37.10
2018-10-18T04:02:02.713Z,40.35
2018-10-18T04:04:36.646Z,41.40
2018-10-18T04:07:10.749Z,37.95
2018-10-18T04:09:44.640Z,38.10
2018-10-18T04:12:18.571Z,38.90
2018-10-18T04:14:52.395Z,37.53
2018-10-18T04:17:26.197Z,35.75
2018-10-18T04:20:00.153Z,36.63
2018-10-18T04:22:33.967Z,36.42
2018-10-18T04:25:08.253Z,35.23
2018-10-18T04:27:42.090Z,34.45
2018-10-18T04:30:16.002Z,33.53
2018-10-18T04:32:49.816Z,34.27
2018-10-18T04:35:23.687Z,35.85
2018-10-18T04:37:57.624Z,32.33
2018-10-18T04:40:31.497Z,30.62
2018-10-18T04:43:05.735Z,31.33
2018-10-18T04:45:39.699Z,29.70
2018-10-18T04:48:13.939Z,29.00
2018-10-18T04:50:47.772Z,29.07
2018-10-18T04:53:21.636Z,29.37
2018-10-18T04:55:56.068Z,26.70
2018-10-18T04:58:29.850Z,28.80
2018-10-18T05:01:03.782Z,30.02
2018-10-18T05:03:37.609Z,29.92
2018-10-18T05:06:11.516Z,29.82
2018-10-18T05:08:45.343Z,29.80
2018-10-18T05:11:19.243Z,28.45
2018-10-18T05:13:53.065Z,28.77
2018-10-18T05:16:26.935Z,24.90
2018-10-18T05:19:00.801Z,27.37
2018-10-18T05:21:34.658Z,27.95
2018-10-18T05:24:08.604Z,24.15
2018-10-18T05:26:42.520Z,24.37
2018-10-18T05:29:16.422Z,22.87
2018-10-18T05:31:50.472Z,22.90
2018-10-18T05:34:24.304Z,21.15
2018-10-18T05:36:58.304Z,20.40
2018-10-18T05:39:32.109Z,19.27
2018-10-18T05:42:06.046Z,17.20
2018-10-18T05:44:39.874Z,17.20
2018-10-18T05:47:13.951Z,16.12
2018-10-18T05:49:47.753Z,17.10
2018-10-18T05:52:21.749Z,17.30
2018-10-18T05:54:55.811Z,16.30
2018-10-18T05:57:29.685Z,14.20
2018-10-18T06:00:03.716Z,15.20
2018-10-18T06:02:37.856Z,15.83
2018-10-18T06:05:13.132Z,13.28
2018-10-18T06:07:47.222Z,14.63
2018-10-18T06:10:32.281Z,15.60
2018-10-18T06:13:06.228Z,14.70
2018-10-18T06:15:40.131Z,16.12
2018-10-18T06:18:14.124Z,16.07
2018-10-18T06:20:48.025Z,16.70
2018-10-18T06:23:22.037Z,15.93
2018-10-18T06:25:55.972Z,15.75
2018-10-18T06:28:29.953Z,18.80
2018-10-18T06:31:03.984Z,18.35
2018-10-18T06:33:37.953Z,20.97
2018-10-18T06:36:12.094Z,20.32
2018-10-18T06:38:45.987Z,17.45
2018-10-18T06:41:19.869Z,19.30
2018-10-18T06:43:53.767Z,18.15
2018-10-18T06:46:27.651Z,18.92
2018-10-18T06:49:01.659Z,19.27
2018-10-18T06:51:35.494Z,19.35
2018-10-18T06:54:09.648Z,21.42
2018-10-18T06:56:43.516Z,20.70
2018-10-18T06:59:17.426Z,18.82
2018-10-18T07:01:51.320Z,21.25
2018-10-18T07:04:25.197Z,20.85
2018-10-18T07:06:59.107Z,20.82
2018-10-18T07:09:33.165Z,20.97
2018-10-18T07:12:07.466Z,21.27
2018-10-18T07:14:41.318Z,21.40
2018-10-18T07:17:15.604Z,22.05
2018-10-18T07:19:50.034Z,21.68
2018-10-18T07:22:23.930Z,20.92
2018-10-18T07:24:57.847Z,19.20
2018-10-18T07:27:31.833Z,23.35
2018-10-18T07:30:07.413Z,22.37
2018-10-18T07:32:41.339Z,22.65
2018-10-18T07:35:15.521Z,20.72
2018-10-18T07:37:49.612Z,20.65
2018-10-18T07:40:23.552Z,21.48
2018-10-18T07:42:57.444Z,21.42
2018-10-18T07:45:31.424Z,21.15
2018-10-18T07:48:05.704Z,21.35
2018-10-18T07:50:39.590Z,19.67
2018-10-18T07:53:13.631Z,21.35
2018-10-18T07:55:47.691Z,20.08
2018-10-18T07:58:21.565Z,21.40
2018-10-18T08:00:55.592Z,20.35
2018-10-18T08:03:31.063Z,20.55
2018-10-18T08:06:05.188Z,20.40
2018-10-18T08:08:39.065Z,17.80
2018-10-18T08:11:13.639Z,17.40
2018-10-18T08:13:47.541Z,17.67
2018-10-18T08:16:21.480Z,19.35
2018-10-18T08:18:55.402Z,19.52
2018-10-18T08:21:29.337Z,16.95
2018-10-18T08:24:03.255Z,18.17
2018-10-18T08:26:37.229Z,17.73
2018-10-18T08:29:11.125Z,17.90
2018-10-18T08:31:45.165Z,16.65
2018-10-18T08:34:19.465Z,16.02
2018-10-18T08:36:53.614Z,16.52
2018-10-18T08:39:27.512Z,17.35
2018-10-18T08:42:01.481Z,16.67
2018-10-18T08:44:35.509Z,15.20
2018-10-18T08:47:09.528Z,15.63
2018-10-18T08:49:43.514Z,15.05
2018-10-18T08:52:17.450Z,14.87
2018-10-18T08:54:51.330Z,15.13
2018-10-18T08:57:25.258Z,13.93
2018-10-18T08:59:59.137Z,14.00
2018-10-18T09:02:33.103Z,14.23
2018-10-18T09:05:07.482Z,13.13
2018-10-18T09:07:41.421Z,13.70
2018-10-18T09:10:15.456Z,15.03
2018-10-18T09:12:49.369Z,14.43
2018-10-18T09:15:23.257Z,16.27
2018-10-18T09:17:57.298Z,15.68
2018-10-18T09:20:31.213Z,15.65
2018-10-18T09:23:05.311Z,15.53
2018-10-18T09:25:39.144Z,15.68
2018-10-18T09:28:13.036Z,16.02
2018-10-18T09:30:46.896Z,16.60
2018-10-18T09:33:20.878Z,16.87
2018-10-18T09:35:54.713Z,17.27
2018-10-18T09:38:28.640Z,17.35
2018-10-18T09:41:02.572Z,16.75
2018-10-18T09:43:36.492Z,16.70
2018-10-18T09:46:10.387Z,15.38
2018-10-18T09:48:44.318Z,16.32
2018-10-18T09:51:18.173Z,16.05
2018-10-18T09:53:52.111Z,16.70
2018-10-18T09:56:26.116Z,17.23
2018-10-18T09:59:00.013Z,16.87
2018-10-18T10:01:39.006Z,16.57
2018-10-18T10:04:12.948Z,15.78
2018-10-18T10:06:46.821Z,16.75
2018-10-18T10:09:20.801Z,18.25
2018-10-18T10:11:54.652Z,19.37
2018-10-18T10:14:28.654Z,18.62
2018-10-18T10:17:02.566Z,18.05
2018-10-18T10:19:36.491Z,16.90
2018-10-18T10:22:10.378Z,18.17
2018-10-18T10:24:44.339Z,17.85
2018-10-18T10:27:18.236Z,18.25
2018-10-18T10:29:52.125Z,17.30
2018-10-18T10:32:26.000Z,16.62
2018-10-18T10:34:59.922Z,15.78
2018-10-18T10:37:33.866Z,15.40
2018-10-18T10:40:09.140Z,16.57
2018-10-18T10:42:43.261Z,17.00
2018-10-18T10:45:17.442Z,16.07
2018-10-18T10:47:52.078Z,14.70
2018-10-18T10:50:25.999Z,15.20
2018-10-18T10:52:59.845Z,14.35
2018-10-18T10:55:33.744Z,13.93
2018-10-18T10:58:07.914Z,12.05
2018-10-18T11:01:15.783Z,10.05
2018-10-18T11:03:51.146Z,10.95
2018-10-18T11:06:25.290Z,11.15
2018-10-18T11:08:59.172Z,10.63
2018-10-18T11:11:33.064Z,11.90
2018-10-18T11:14:07.033Z,10.98
2018-10-18T11:16:40.970Z,11.88
2018-10-18T11:19:15.870Z,11.93
2018-10-18T11:21:49.972Z,11.20
2018-10-18T11:24:23.797Z,12.73
2018-10-18T11:26:57.811Z,12.10
2018-10-18T11:29:31.683Z,12.13
2018-10-18T11:32:05.891Z,11.45
2018-10-18T11:34:39.802Z,11.83
2018-10-18T11:37:13.750Z,11.33
2018-10-18T11:39:47.635Z,11.28
2018-10-18T11:42:21.805Z,11.48
2018-10-18T11:44:55.588Z,11.48
2018-10-18T11:47:29.596Z,9.73
2018-10-18T11:50:03.480Z,7.70
2018-10-18T11:52:37.483Z,7.75
2018-10-18T11:55:11.441Z,7.90
2018-10-18T11:57:45.638Z,8.05
2018-10-18T12:00:20.144Z,9.13
2018-10-18T12:02:54.140Z,9.48
2018-10-18T12:05:28.077Z,9.63
2018-10-18T12:08:02.114Z,8.70
2018-10-18T12:10:35.988Z,8.58
2018-10-18T12:13:09.993Z,8.33
2018-10-18T12:15:43.867Z,9.30
2018-10-18T12:18:17.764Z,7.60
2018-10-18T12:20:51.645Z,8.38
2018-10-18T12:23:25.531Z,7.72
2018-10-18T12:25:59.399Z,7.85
2018-10-18T12:28:33.341Z,7.55
2018-10-18T12:31:07.320Z,7.50
2018-10-18T12:33:41.200Z,8.00
2018-10-18T12:36:15.091Z,6.72
2018-10-18T12:38:49.085Z,6.97
2018-10-18T12:41:25.321Z,7.67
2018-10-18T12:43:59.252Z,8.08
2018-10-18T12:46:33.136Z,6.70
2018-10-18T12:49:07.090Z,8.10
2018-10-18T12:51:41.030Z,7.12
2018-10-18T12:54:15.031Z,7.40
2018-10-18T12:56:48.988Z,7.10
2018-10-18T12:59:23.430Z,7.25
2018-10-18T13:01:57.426Z,6.75
2018-10-18T13:04:31.352Z,7.35
2018-10-18T13:07:05.539Z,6.60
2018-10-18T13:09:39.529Z,7.78
2018-10-18T13:12:13.554Z,9.08
2018-10-18T13:14:47.643Z,8.25
2018-10-18T13:18:08.602Z,8.25
2018-10-18T13:20:43.685Z,8.18
2018-10-18T13:23:17.621Z,7.80
2018-10-18T13:25:53.574Z,8.60
2018-10-18T13:29:07.884Z,8.25
2018-10-18T13:31:42.568Z,8.80
2018-10-18T13:34:16.537Z,8.25
2018-10-18T13:36:50.477Z,9.30
2018-10-18T13:39:24.420Z,8.95
2018-10-18T13:41:58.449Z,9.50
2018-10-18T13:44:32.349Z,9.30
2018-10-18T13:47:06.462Z,10.53
2018-10-18T13:49:40.374Z,9.35
2018-10-18T13:52:14.324Z,12.55
2018-10-18T13:54:48.213Z,11.88
2018-10-18T13:57:22.292Z,12.28
2018-10-18T14:00:28.684Z,11.08
2018-10-18T14:03:02.676Z,10.72
2018-10-18T14:05:36.678Z,10.25
2018-10-18T14:08:10.708Z,10.88
2018-10-18T14:10:44.561Z,12.68
2018-10-18T14:13:18.496Z,9.85
2018-10-18T14:15:52.384Z,10.28
2018-10-18T14:18:26.293Z,11.25
2018-10-18T14:21:00.198Z,11.28
2018-10-18T14:23:34.242Z,10.93
2018-10-18T14:26:08.270Z,11.38
2018-10-18T14:28:42.067Z,13.68
2018-10-18T14:31:16.133Z,14.38
2018-10-18T14:33:50.153Z,14.00
2018-10-18T14:36:24.039Z,11.40
2018-10-18T14:38:58.342Z,9.70
2018-10-18T14:41:32.237Z,8.48
2018-10-18T14:44:06.540Z,7.65
2018-10-18T14:46:40.425Z,6.22
2018-10-18T14:49:14.310Z,5.05
2018-10-18T14:51:48.210Z,3.98
2018-10-18T14:54:22.153Z,3.45
2018-10-18T14:56:56.015Z,3.47
2018-10-18T14:59:30.077Z,4.25
2018-10-18T15:02:04.173Z,3.98
2018-10-18T15:04:38.432Z,4.17
2018-10-18T15:07:12.244Z,3.87
2018-10-18T15:09:46.181Z,4.15
2018-10-18T15:12:20.059Z,3.40
2018-10-18T15:14:53.989Z,3.50
2018-10-18T15:17:27.851Z,3.52
2018-10-18T15:20:03.839Z,3.20
2018-10-18T15:22:47.189Z,3.83
2018-10-18T15:25:21.373Z,3.20
2018-10-18T15:27:55.207Z,3.70
2018-10-18T15:30:29.152Z,3.42
2018-10-18T15:33:03.101Z,3.40
2018-10-18T15:35:37.029Z,2.90
2018-10-18T15:38:11.116Z,2.98
2018-10-18T15:40:44.979Z,3.25
2018-10-18T15:43:19.068Z,2.92
2018-10-18T15:45:52.957Z,3.08
2018-10-18T15:48:26.970Z,3.33
2018-10-18T15:51:03.129Z,3.02
2018-10-18T15:53:37.237Z,3.67
2018-10-18T15:56:23.895Z,4.08
2018-10-18T15:58:57.949Z,4.00
2018-10-18T16:01:32.050Z,3.70
2018-10-18T16:04:06.868Z,3.95
2018-10-18T16:06:41.269Z,4.70
2018-10-18T16:09:15.793Z,4.08
2018-10-18T16:11:50.946Z,3.98
2018-10-18T16:14:24.908Z,5.12
2018-10-18T16:16:59.002Z,4.33
2018-10-18T16:19:33.072Z,6.00
2018-10-18T16:22:07.368Z,4.97
2018-10-18T16:24:41.384Z,5.97
2018-10-18T16:27:16.436Z,5.12
2018-10-18T16:29:50.629Z,5.33
2018-10-18T16:32:24.615Z,6.83
2018-10-18T16:34:59.115Z,6.25
2018-10-18T16:37:33.188Z,6.12
2018-10-18T16:40:07.622Z,5.12
2018-10-18T16:42:41.779Z,5.65
2018-10-18T16:45:15.675Z,4.95
2018-10-18T16:47:49.664Z,5.40
2018-10-18T16:50:23.651Z,4.87
2018-10-18T16:52:57.629Z,4.95
2018-10-18T16:55:31.580Z,5.20
2018-10-18T16:58:05.694Z,5.33
2018-10-18T17:00:39.536Z,5.25
2018-10-18T17:03:13.554Z,4.83
2018-10-18T17:05:47.554Z,4.25
2018-10-18T17:08:21.572Z,5.15
2018-10-18T17:10:56.323Z,4.97
2018-10-18T17:13:30.280Z,4.70
2018-10-18T17:16:04.277Z,4.50
2018-10-18T17:18:38.485Z,4.20
2018-10-18T17:21:12.514Z,4.30
2018-10-18T17:23:46.606Z,4.25
2018-10-18T17:26:20.618Z,4.45
2018-10-18T17:28:54.535Z,4.08
2018-10-18T17:31:28.845Z,4.17
2018-10-18T17:34:02.929Z,3.60
2018-10-18T17:36:36.811Z,3.62
2018-10-18T17:39:11.573Z,4.42
2018-10-18T17:41:45.471Z,3.40
2018-10-18T17:44:19.374Z,3.42
2018-10-18T17:46:53.334Z,3.30
2018-10-18T17:49:27.516Z,3.75
2018-10-18T17:52:02.116Z,3.20
2018-10-18T17:54:36.046Z,4.22
2018-10-18T17:57:10.173Z,3.90
2018-10-18T17:59:44.205Z,4.10
2018-10-18T18:02:18.341Z,3.50
2018-10-18T18:04:53.947Z,3.75
2018-10-18T18:07:28.108Z,3.27
2018-10-18T18:10:02.387Z,3.33
2018-10-18T18:12:36.556Z,4.00
2018-10-18T18:15:10.965Z,3.67
2018-10-18T18:17:44.884Z,3.50
2018-10-18T18:20:18.796Z,3.17
2018-10-18T18:22:53.002Z,2.75
2018-10-18T18:25:26.920Z,3.52
2018-10-18T18:28:00.749Z,3.90
2018-10-18T18:30:34.657Z,3.25
2018-10-18T18:33:08.537Z,2.95
2018-10-18T18:35:42.461Z,3.35
2018-10-18T18:38:16.296Z,2.62
2018-10-18T18:40:50.216Z,2.67
2018-10-18T18:43:24.108Z,2.42
2018-10-18T18:45:58.113Z,3.10
2018-10-18T18:48:31.952Z,2.95
2018-10-18T18:51:05.934Z,2.98
2018-10-18T18:53:39.784Z,3.45
2018-10-18T18:56:13.768Z,4.05
2018-10-18T18:58:47.611Z,5.72
2018-10-18T19:01:21.770Z,6.80
2018-10-18T19:03:55.650Z,4.72
2018-10-18T19:06:29.565Z,5.30
2018-10-18T19:09:03.655Z,5.90
2018-10-18T19:11:38.498Z,3.70
2018-10-18T19:14:12.461Z,3.85
2018-10-18T19:16:46.511Z,4.00
2018-10-18T19:19:20.352Z,3.35
2018-10-18T19:21:54.358Z,3.57
2018-10-18T19:24:28.218Z,3.60
2018-10-18T19:27:02.312Z,3.53
2018-10-18T19:29:36.273Z,2.75
2018-10-18T19:32:10.324Z,2.57
2018-10-18T19:34:44.476Z,3.00
2018-10-18T19:37:18.473Z,2.60
2018-10-18T19:39:52.367Z,3.33
2018-10-18T19:42:26.323Z,2.77
2018-10-18T19:45:00.221Z,3.00
2018-10-18T19:47:34.115Z,2.90
2018-10-18T19:50:09.017Z,2.73
2018-10-18T19:52:42.946Z,2.80
2018-10-18T19:55:16.750Z,2.77
2018-10-18T19:57:50.660Z,2.57
2018-10-18T20:00:24.517Z,2.30
2018-10-18T20:02:58.406Z,2.77
2018-10-18T20:05:32.232Z,3.00
2018-10-18T20:08:06.194Z,2.70
2018-10-18T20:10:39.975Z,2.40
2018-10-18T20:13:13.830Z,2.70
2018-10-18T20:15:47.834Z,2.80
2018-10-18T20:18:21.843Z,2.40
2018-10-18T20:20:55.627Z,2.60
2018-10-18T20:23:30.085Z,3.23
2018-10-18T20:26:04.206Z,2.97
2018-10-18T20:28:37.964Z,2.73
2018-10-18T20:31:11.855Z,2.73
2018-10-18T20:33:45.696Z,2.57
2018-10-18T20:36:19.550Z,3.20
2018-10-18T20:38:53.472Z,2.90
2018-10-18T20:41:28.025Z,2.73
2018-10-18T20:44:01.894Z,2.50
2018-10-18T20:46:35.814Z,2.83
2018-10-18T20:49:09.673Z,2.80
2018-10-18T20:51:46.473Z,2.53
2018-10-18T20:54:20.435Z,2.40
2018-10-18T20:56:54.255Z,2.40
2018-10-18T20:59:28.142Z,2.47
2018-10-18T21:02:03.060Z,2.57
2018-10-18T21:04:36.910Z,2.20
2018-10-18T21:07:10.702Z,2.47
2018-10-18T21:09:44.560Z,2.40
2018-10-18T21:12:18.407Z,2.40
2018-10-18T21:14:52.364Z,2.20
2018-10-18T21:17:26.204Z,2.53
2018-10-18T21:20:00.153Z,2.50
2018-10-18T21:22:34.005Z,2.83
2018-10-18T21:25:08.108Z,2.50
2018-10-18T21:27:41.981Z,3.50
2018-10-18T21:30:15.958Z,4.33
2018-10-18T21:32:49.795Z,3.97
2018-10-18T21:35:23.681Z,3.87
2018-10-18T21:37:57.619Z,3.10
2018-10-18T21:40:31.508Z,4.13
2018-10-18T21:43:05.495Z,1.83
2018-10-18T21:45:39.465Z,2.10
2018-10-18T21:48:13.424Z,2.87
2018-10-18T21:50:47.306Z,3.40
2018-10-18T21:53:21.161Z,2.60
2018-10-18T21:55:55.136Z,2.40
2018-10-18T21:58:28.954Z,2.97
2018-10-18T22:01:03.136Z,2.93
2018-10-18T22:03:36.999Z,2.57
2018-10-18T22:06:10.878Z,2.60
2018-10-18T22:08:44.726Z,2.50
2018-10-18T22:11:18.681Z,2.50
2018-10-18T22:13:52.521Z,2.10
2018-10-18T22:16:26.411Z,2.07
2018-10-18T22:19:00.289Z,1.80
2018-10-18T22:21:34.128Z,1.80
2018-10-18T22:24:09.204Z,1.83
2018-10-18T22:26:43.053Z,1.77
2018-10-18T22:29:16.968Z,2.00
2018-10-18T22:31:50.875Z,1.97
2018-10-18T22:34:24.705Z,1.80
2018-10-18T22:36:58.626Z,2.00
2018-10-18T22:39:32.547Z,2.30
2018-10-18T22:42:06.762Z,2.03
2018-10-18T22:44:40.706Z,1.83
2018-10-18T22:47:14.745Z,1.67
2018-10-18T22:49:48.608Z,1.67
2018-10-18T22:52:22.545Z,2.30
2018-10-18T22:54:56.494Z,2.10
2018-10-18T22:57:30.493Z,1.70
2018-10-18T23:00:04.702Z,1.80
2018-10-18T23:02:38.775Z,1.67
2018-10-18T23:05:12.706Z,2.87
2018-10-18T23:07:46.629Z,1.73
2018-10-18T23:10:20.518Z,2.07
2018-10-18T23:12:54.369Z,1.97
2018-10-18T23:15:28.213Z,2.00
2018-10-18T23:18:02.097Z,2.10
2018-10-18T23:20:35.938Z,1.70
2018-10-18T23:23:10.508Z,1.80
2018-10-18T23:25:44.376Z,1.93
2018-10-18T23:28:18.347Z,2.10
2018-10-18T23:30:52.160Z,2.20
2018-10-18T23:33:26.077Z,1.97
2018-10-18T23:35:59.909Z,1.90
2018-10-18T23:38:33.797Z,1.83
2018-10-18T23:41:07.922Z,1.93
2018-10-18T23:43:41.813Z,2.00
2018-10-18T23:46:15.678Z,2.40
2018-10-18T23:48:49.523Z,2.00
2018-10-18T23:51:23.349Z,2.33
2018-10-18T23:53:57.238Z,1.97
2018-10-18T23:56:31.143Z,2.13
2018-10-18T23:59:05.131Z,1.97
